sensor_id;sensor_type;location;lat;lon;timestamp;temperature;humidity
44775;DHT22;31340;51.402;0.016;2022-07-10T00:01:00;20.80;75.80
44775;DHT22;31340;51.402;0.016;2022-07-10T00:03:27;20.80;75.70
44775;DHT22;31340;51.402;0.016;2022-07-10T00:05:55;20.80;75.80
44775;DHT22;31340;51.402;0.016;2022-07-10T00:08:23;20.80;76.10
44775;DHT22;31340;51.402;0.016;2022-07-10T00:10:50;20.70;76.10
44775;DHT22;31340;51.402;0.016;2022-07-10T00:13:18;20.70;76.20
44775;DHT22;31340;51.402;0.016;2022-07-10T00:15:45;20.70;76.30
44775;DHT22;31340;51.402;0.016;2022-07-10T00:18:13;20.70;76.30
44775;DHT22;31340;51.402;0.016;2022-07-10T00:20:40;20.60;76.40
44775;DHT22;31340;51.402;0.016;2022-07-10T00:23:08;20.60;76.50
44775;DHT22;31340;51.402;0.016;2022-07-10T00:25:35;20.60;76.50
44775;DHT22;31340;51.402;0.016;2022-07-10T00:28:03;20.50;76.40
44775;DHT22;31340;51.402;0.016;2022-07-10T00:30:31;20.50;76.50
44775;DHT22;31340;51.402;0.016;2022-07-10T00:32:59;20.40;76.50
44775;DHT22;31340;51.402;0.016;2022-07-10T00:35:26;20.40;76.60
44775;DHT22;31340;51.402;0.016;2022-07-10T00:37:54;20.40;76.80
44775;DHT22;31340;51.402;0.016;2022-07-10T00:40:22;20.30;76.80
44775;DHT22;31340;51.402;0.016;2022-07-10T00:42:49;20.30;77.00
44775;DHT22;31340;51.402;0.016;2022-07-10T00:45:17;20.20;77.20
44775;DHT22;31340;51.402;0.016;2022-07-10T00:47:45;20.20;77.30
44775;DHT22;31340;51.402;0.016;2022-07-10T00:50:12;20.20;77.40
44775;DHT22;31340;51.402;0.016;2022-07-10T00:52:40;20.20;77.50
44775;DHT22;31340;51.402;0.016;2022-07-10T00:55:09;20.10;77.40
44775;DHT22;31340;51.402;0.016;2022-07-10T00:57:37;20.10;77.50
44775;DHT22;31340;51.402;0.016;2022-07-10T01:00:06;20.10;77.60
44775;DHT22;31340;51.402;0.016;2022-07-10T01:02:33;20.10;77.70
44775;DHT22;31340;51.402;0.016;2022-07-10T01:05:01;20.10;77.80
44775;DHT22;31340;51.402;0.016;2022-07-10T01:07:29;20.10;78.70
44775;DHT22;31340;51.402;0.016;2022-07-10T01:09:58;20.00;77.90
44775;DHT22;31340;51.402;0.016;2022-07-10T01:12:28;20.00;77.90
44775;DHT22;31340;51.402;0.016;2022-07-10T01:14:55;20.00;78.00
44775;DHT22;31340;51.402;0.016;2022-07-10T01:17:23;20.00;78.10
44775;DHT22;31340;51.402;0.016;2022-07-10T01:19:51;20.00;78.20
44775;DHT22;31340;51.402;0.016;2022-07-10T01:22:19;19.90;78.10
44775;DHT22;31340;51.402;0.016;2022-07-10T01:24:47;19.90;78.20
44775;DHT22;31340;51.402;0.016;2022-07-10T01:27:14;19.90;78.20
44775;DHT22;31340;51.402;0.016;2022-07-10T01:29:42;19.80;78.20
44775;DHT22;31340;51.402;0.016;2022-07-10T01:32:11;19.80;78.10
44775;DHT22;31340;51.402;0.016;2022-07-10T01:34:38;19.80;78.20
44775;DHT22;31340;51.402;0.016;2022-07-10T01:37:07;19.80;78.50
44775;DHT22;31340;51.402;0.016;2022-07-10T01:39:34;19.70;78.50
44775;DHT22;31340;51.402;0.016;2022-07-10T01:42:02;19.70;78.50
44775;DHT22;31340;51.402;0.016;2022-07-10T01:44:29;19.70;78.70
44775;DHT22;31340;51.402;0.016;2022-07-10T01:46:57;19.60;78.70
44775;DHT22;31340;51.402;0.016;2022-07-10T01:49:24;19.60;78.90
44775;DHT22;31340;51.402;0.016;2022-07-10T01:51:52;19.60;79.00
44775;DHT22;31340;51.402;0.016;2022-07-10T01:54:19;19.60;79.20
44775;DHT22;31340;51.402;0.016;2022-07-10T01:56:47;19.50;79.20
44775;DHT22;31340;51.402;0.016;2022-07-10T01:59:14;19.50;79.40
44775;DHT22;31340;51.402;0.016;2022-07-10T02:01:42;19.50;79.40
44775;DHT22;31340;51.402;0.016;2022-07-10T02:04:09;19.50;79.60
44775;DHT22;31340;51.402;0.016;2022-07-10T02:06:55;19.40;79.50
44775;DHT22;31340;51.402;0.016;2022-07-10T02:09:23;19.40;79.60
44775;DHT22;31340;51.402;0.016;2022-07-10T02:11:51;19.40;79.80
44775;DHT22;31340;51.402;0.016;2022-07-10T02:14:18;19.40;80.00
44775;DHT22;31340;51.402;0.016;2022-07-10T02:16:46;19.40;80.10
44775;DHT22;31340;51.402;0.016;2022-07-10T02:19:13;19.30;80.20
44775;DHT22;31340;51.402;0.016;2022-07-10T02:21:41;19.30;80.20
44775;DHT22;31340;51.402;0.016;2022-07-10T02:24:09;19.30;80.40
44775;DHT22;31340;51.402;0.016;2022-07-10T02:26:36;19.20;80.40
44775;DHT22;31340;51.402;0.016;2022-07-10T02:29:04;19.20;80.50
44775;DHT22;31340;51.402;0.016;2022-07-10T02:31:32;19.20;80.60
44775;DHT22;31340;51.402;0.016;2022-07-10T02:34:02;19.10;80.70
44775;DHT22;31340;51.402;0.016;2022-07-10T02:36:30;19.10;80.70
44775;DHT22;31340;51.402;0.016;2022-07-10T02:38:57;19.10;81.70
44775;DHT22;31340;51.402;0.016;2022-07-10T02:41:25;19.10;81.00
44775;DHT22;31340;51.402;0.016;2022-07-10T02:43:53;19.10;81.10
44775;DHT22;31340;51.402;0.016;2022-07-10T02:46:20;19.00;81.30
44775;DHT22;31340;51.402;0.016;2022-07-10T02:48:48;19.00;81.50
44775;DHT22;31340;51.402;0.016;2022-07-10T02:51:16;19.00;81.70
44775;DHT22;31340;51.402;0.016;2022-07-10T02:53:43;18.90;81.80
44775;DHT22;31340;51.402;0.016;2022-07-10T02:56:11;18.90;82.00
44775;DHT22;31340;51.402;0.016;2022-07-10T02:58:38;18.90;82.10
44775;DHT22;31340;51.402;0.016;2022-07-10T03:01:07;18.80;82.00
44775;DHT22;31340;51.402;0.016;2022-07-10T03:03:35;18.80;82.00
44775;DHT22;31340;51.402;0.016;2022-07-10T03:06:03;18.70;82.00
44775;DHT22;31340;51.402;0.016;2022-07-10T03:08:31;18.70;82.00
44775;DHT22;31340;51.402;0.016;2022-07-10T03:10:58;18.60;82.10
44775;DHT22;31340;51.402;0.016;2022-07-10T03:13:26;18.60;82.20
44775;DHT22;31340;51.402;0.016;2022-07-10T03:15:54;18.50;82.20
44775;DHT22;31340;51.402;0.016;2022-07-10T03:18:22;18.50;82.30
44775;DHT22;31340;51.402;0.016;2022-07-10T03:20:50;18.40;82.30
44775;DHT22;31340;51.402;0.016;2022-07-10T03:23:17;18.40;82.30
44775;DHT22;31340;51.402;0.016;2022-07-10T03:25:45;18.40;82.30
44775;DHT22;31340;51.402;0.016;2022-07-10T03:28:15;18.30;82.30
44775;DHT22;31340;51.402;0.016;2022-07-10T03:30:42;18.30;82.40
44775;DHT22;31340;51.402;0.016;2022-07-10T03:33:10;18.20;82.40
44775;DHT22;31340;51.402;0.016;2022-07-10T03:35:37;18.20;82.60
44775;DHT22;31340;51.402;0.016;2022-07-10T03:38:05;18.20;82.60
44775;DHT22;31340;51.402;0.016;2022-07-10T03:40:32;18.10;82.60
44775;DHT22;31340;51.402;0.016;2022-07-10T03:43:00;18.10;82.70
44775;DHT22;31340;51.402;0.016;2022-07-10T03:45:28;18.10;82.80
44775;DHT22;31340;51.402;0.016;2022-07-10T03:47:55;18.00;82.70
44775;DHT22;31340;51.402;0.016;2022-07-10T03:50:23;18.00;82.80
44775;DHT22;31340;51.402;0.016;2022-07-10T03:52:51;18.00;82.80
44775;DHT22;31340;51.402;0.016;2022-07-10T03:55:18;17.90;82.80
44775;DHT22;31340;51.402;0.016;2022-07-10T03:57:46;17.80;82.90
44775;DHT22;31340;51.402;0.016;2022-07-10T04:00:25;17.80;82.80
44775;DHT22;31340;51.402;0.016;2022-07-10T04:02:57;17.80;83.60
44775;DHT22;31340;51.402;0.016;2022-07-10T04:05:26;17.80;82.70
44775;DHT22;31340;51.402;0.016;2022-07-10T04:07:54;17.70;82.70
44775;DHT22;31340;51.402;0.016;2022-07-10T04:10:22;17.60;82.70
44775;DHT22;31340;51.402;0.016;2022-07-10T04:12:49;17.60;82.80
44775;DHT22;31340;51.402;0.016;2022-07-10T04:15:19;17.60;82.80
44775;DHT22;31340;51.402;0.016;2022-07-10T04:17:48;17.50;82.90
44775;DHT22;31340;51.402;0.016;2022-07-10T04:20:16;17.50;82.90
44775;DHT22;31340;51.402;0.016;2022-07-10T04:22:44;17.50;83.60
44775;DHT22;31340;51.402;0.016;2022-07-10T04:25:13;17.40;82.90
44775;DHT22;31340;51.402;0.016;2022-07-10T04:27:40;17.40;82.90
44775;DHT22;31340;51.402;0.016;2022-07-10T04:30:08;17.40;82.90
44775;DHT22;31340;51.402;0.016;2022-07-10T04:32:36;17.30;83.10
44775;DHT22;31340;51.402;0.016;2022-07-10T04:35:04;17.30;83.10
44775;DHT22;31340;51.402;0.016;2022-07-10T04:37:32;17.30;83.30
44775;DHT22;31340;51.402;0.016;2022-07-10T04:40:01;17.30;83.40
44775;DHT22;31340;51.402;0.016;2022-07-10T04:42:29;17.30;83.40
44775;DHT22;31340;51.402;0.016;2022-07-10T04:44:56;17.30;83.50
44775;DHT22;31340;51.402;0.016;2022-07-10T04:47:24;17.30;83.50
44775;DHT22;31340;51.402;0.016;2022-07-10T04:49:51;17.30;83.50
44775;DHT22;31340;51.402;0.016;2022-07-10T04:52:19;17.30;83.40
44775;DHT22;31340;51.402;0.016;2022-07-10T04:54:46;17.30;83.40
44775;DHT22;31340;51.402;0.016;2022-07-10T04:57:14;17.40;83.40
44775;DHT22;31340;51.402;0.016;2022-07-10T04:59:41;17.40;83.40
44775;DHT22;31340;51.402;0.016;2022-07-10T05:02:09;17.40;83.30
44775;DHT22;31340;51.402;0.016;2022-07-10T05:04:39;17.40;83.30
44775;DHT22;31340;51.402;0.016;2022-07-10T05:07:07;17.40;83.30
44775;DHT22;31340;51.402;0.016;2022-07-10T05:09:34;17.40;83.10
44775;DHT22;31340;51.402;0.016;2022-07-10T05:12:02;17.40;83.90
44775;DHT22;31340;51.402;0.016;2022-07-10T05:14:29;17.40;83.20
44775;DHT22;31340;51.402;0.016;2022-07-10T05:16:57;17.40;83.10
44775;DHT22;31340;51.402;0.016;2022-07-10T05:19:24;17.40;83.10
44775;DHT22;31340;51.402;0.016;2022-07-10T05:21:52;17.50;83.10
44775;DHT22;31340;51.402;0.016;2022-07-10T05:24:19;17.50;83.00
44775;DHT22;31340;51.402;0.016;2022-07-10T05:26:47;17.50;82.90
44775;DHT22;31340;51.402;0.016;2022-07-10T05:29:14;17.60;82.80
44775;DHT22;31340;51.402;0.016;2022-07-10T05:31:42;17.60;82.60
44775;DHT22;31340;51.402;0.016;2022-07-10T05:34:09;17.70;82.60
44775;DHT22;31340;51.402;0.016;2022-07-10T05:36:37;17.70;82.40
44775;DHT22;31340;51.402;0.016;2022-07-10T05:39:05;17.70;82.30
44775;DHT22;31340;51.402;0.016;2022-07-10T05:41:34;17.80;82.30
44775;DHT22;31340;51.402;0.016;2022-07-10T05:44:04;17.80;82.10
44775;DHT22;31340;51.402;0.016;2022-07-10T05:46:32;17.90;81.90
44775;DHT22;31340;51.402;0.016;2022-07-10T05:48:59;17.90;81.70
44775;DHT22;31340;51.402;0.016;2022-07-10T05:51:27;18.00;81.60
44775;DHT22;31340;51.402;0.016;2022-07-10T05:54:00;18.00;81.50
44775;DHT22;31340;51.402;0.016;2022-07-10T05:56:28;18.10;81.20
44775;DHT22;31340;51.402;0.016;2022-07-10T05:58:56;18.10;80.90
44775;DHT22;31340;51.402;0.016;2022-07-10T06:01:24;18.20;80.50
44775;DHT22;31340;51.402;0.016;2022-07-10T06:03:53;18.30;80.30
44775;DHT22;31340;51.402;0.016;2022-07-10T06:06:21;18.30;79.90
44775;DHT22;31340;51.402;0.016;2022-07-10T06:08:48;18.40;79.60
44775;DHT22;31340;51.402;0.016;2022-07-10T06:11:16;18.50;79.30
44775;DHT22;31340;51.402;0.016;2022-07-10T06:13:43;18.50;78.80
44775;DHT22;31340;51.402;0.016;2022-07-10T06:16:11;18.60;78.60
44775;DHT22;31340;51.402;0.016;2022-07-10T06:18:39;18.60;78.30
44775;DHT22;31340;51.402;0.016;2022-07-10T06:21:07;18.70;77.90
44775;DHT22;31340;51.402;0.016;2022-07-10T06:23:35;18.70;77.70
44775;DHT22;31340;51.402;0.016;2022-07-10T06:26:03;18.80;77.60
44775;DHT22;31340;51.402;0.016;2022-07-10T06:28:30;18.90;77.40
44775;DHT22;31340;51.402;0.016;2022-07-10T06:31:01;19.00;77.10
44775;DHT22;31340;51.402;0.016;2022-07-10T06:33:28;19.00;77.50
44775;DHT22;31340;51.402;0.016;2022-07-10T06:35:56;19.10;76.50
44775;DHT22;31340;51.402;0.016;2022-07-10T06:38:23;19.20;76.00
44775;DHT22;31340;51.402;0.016;2022-07-10T06:40:51;19.20;75.10
44775;DHT22;31340;51.402;0.016;2022-07-10T06:43:19;19.30;74.50
44775;DHT22;31340;51.402;0.016;2022-07-10T06:45:47;19.30;74.10
44775;DHT22;31340;51.402;0.016;2022-07-10T06:48:15;19.40;73.80
44775;DHT22;31340;51.402;0.016;2022-07-10T06:50:44;19.50;73.50
44775;DHT22;31340;51.402;0.016;2022-07-10T06:53:11;19.50;73.20
44775;DHT22;31340;51.402;0.016;2022-07-10T06:55:39;19.60;73.10
44775;DHT22;31340;51.402;0.016;2022-07-10T06:58:06;19.70;72.90
44775;DHT22;31340;51.402;0.016;2022-07-10T07:00:34;19.70;72.70
44775;DHT22;31340;51.402;0.016;2022-07-10T07:03:02;19.80;72.40
44775;DHT22;31340;51.402;0.016;2022-07-10T07:05:30;19.80;72.10
44775;DHT22;31340;51.402;0.016;2022-07-10T07:07:57;19.90;71.90
44775;DHT22;31340;51.402;0.016;2022-07-10T07:10:25;20.00;71.80
44775;DHT22;31340;51.402;0.016;2022-07-10T07:12:52;20.10;71.80
44775;DHT22;31340;51.402;0.016;2022-07-10T07:15:20;20.10;71.70
44775;DHT22;31340;51.402;0.016;2022-07-10T07:17:51;20.20;71.70
44775;DHT22;31340;51.402;0.016;2022-07-10T07:20:25;20.20;71.70
44775;DHT22;31340;51.402;0.016;2022-07-10T07:23:12;20.30;71.70
44775;DHT22;31340;51.402;0.016;2022-07-10T07:25:40;20.40;71.80
44775;DHT22;31340;51.402;0.016;2022-07-10T07:28:09;20.40;72.00
44775;DHT22;31340;51.402;0.016;2022-07-10T07:30:43;20.50;72.10
44775;DHT22;31340;51.402;0.016;2022-07-10T07:33:10;20.50;72.10
44775;DHT22;31340;51.402;0.016;2022-07-10T07:35:38;20.60;72.20
44775;DHT22;31340;51.402;0.016;2022-07-10T07:38:06;20.60;72.60
44775;DHT22;31340;51.402;0.016;2022-07-10T07:40:34;20.70;72.70
44775;DHT22;31340;51.402;0.016;2022-07-10T07:43:04;20.80;72.30
44775;DHT22;31340;51.402;0.016;2022-07-10T07:45:32;20.80;72.20
44775;DHT22;31340;51.402;0.016;2022-07-10T07:48:00;20.90;72.40
44775;DHT22;31340;51.402;0.016;2022-07-10T07:50:31;21.00;72.70
44775;DHT22;31340;51.402;0.016;2022-07-10T07:53:00;21.00;72.50
44775;DHT22;31340;51.402;0.016;2022-07-10T07:55:29;21.10;72.30
44775;DHT22;31340;51.402;0.016;2022-07-10T07:57:57;21.10;72.30
44775;DHT22;31340;51.402;0.016;2022-07-10T08:00:27;21.20;72.50
44775;DHT22;31340;51.402;0.016;2022-07-10T08:02:57;21.30;72.60
44775;DHT22;31340;51.402;0.016;2022-07-10T08:05:25;21.40;72.40
44775;DHT22;31340;51.402;0.016;2022-07-10T08:07:54;21.40;72.00
44775;DHT22;31340;51.402;0.016;2022-07-10T08:10:24;21.40;71.60
44775;DHT22;31340;51.402;0.016;2022-07-10T08:12:53;21.50;71.60
44775;DHT22;31340;51.402;0.016;2022-07-10T08:15:21;21.50;71.50
44775;DHT22;31340;51.402;0.016;2022-07-10T08:17:51;21.60;71.30
44775;DHT22;31340;51.402;0.016;2022-07-10T08:20:19;21.70;70.90
44775;DHT22;31340;51.402;0.016;2022-07-10T08:22:47;21.70;70.80
44775;DHT22;31340;51.402;0.016;2022-07-10T08:25:20;21.80;70.80
44775;DHT22;31340;51.402;0.016;2022-07-10T08:27:48;21.80;70.90
44775;DHT22;31340;51.402;0.016;2022-07-10T08:30:16;21.90;70.40
44775;DHT22;31340;51.402;0.016;2022-07-10T08:32:44;22.00;70.30
44775;DHT22;31340;51.402;0.016;2022-07-10T08:35:11;22.00;70.10
44775;DHT22;31340;51.402;0.016;2022-07-10T08:37:44;22.10;69.90
44775;DHT22;31340;51.402;0.016;2022-07-10T08:40:14;22.20;70.00
44775;DHT22;31340;51.402;0.016;2022-07-10T08:42:42;22.20;70.00
44775;DHT22;31340;51.402;0.016;2022-07-10T08:45:14;22.30;70.00
44775;DHT22;31340;51.402;0.016;2022-07-10T08:47:41;22.40;69.70
44775;DHT22;31340;51.402;0.016;2022-07-10T08:50:16;22.40;69.60
44775;DHT22;31340;51.402;0.016;2022-07-10T08:53:12;22.50;69.40
44775;DHT22;31340;51.402;0.016;2022-07-10T08:55:40;22.60;69.40
44775;DHT22;31340;51.402;0.016;2022-07-10T08:58:12;22.60;69.00
44775;DHT22;31340;51.402;0.016;2022-07-10T09:00:39;22.70;68.60
44775;DHT22;31340;51.402;0.016;2022-07-10T09:03:08;22.80;68.30
44775;DHT22;31340;51.402;0.016;2022-07-10T09:05:35;22.80;67.80
44775;DHT22;31340;51.402;0.016;2022-07-10T09:08:03;22.90;67.80
44775;DHT22;31340;51.402;0.016;2022-07-10T09:10:31;22.90;67.70
44775;DHT22;31340;51.402;0.016;2022-07-10T09:13:00;23.00;67.40
44775;DHT22;31340;51.402;0.016;2022-07-10T09:15:31;23.10;67.00
44775;DHT22;31340;51.402;0.016;2022-07-10T09:18:04;23.20;66.60
44775;DHT22;31340;51.402;0.016;2022-07-10T09:20:38;23.20;66.30
44775;DHT22;31340;51.402;0.016;2022-07-10T09:23:18;23.30;66.10
44775;DHT22;31340;51.402;0.016;2022-07-10T09:25:47;23.30;66.00
44775;DHT22;31340;51.402;0.016;2022-07-10T09:28:20;23.30;65.90
44775;DHT22;31340;51.402;0.016;2022-07-10T09:30:48;23.40;65.90
44775;DHT22;31340;51.402;0.016;2022-07-10T09:33:23;23.50;65.90
44775;DHT22;31340;51.402;0.016;2022-07-10T09:41:15;23.70;64.90
44775;DHT22;31340;51.402;0.016;2022-07-10T09:43:51;23.80;65.00
44775;DHT22;31340;51.402;0.016;2022-07-10T09:46:21;23.90;64.50
44775;DHT22;31340;51.402;0.016;2022-07-10T09:49:04;24.00;64.60
44775;DHT22;31340;51.402;0.016;2022-07-10T09:54:08;24.30;64.10
44775;DHT22;31340;51.402;0.016;2022-07-10T09:56:47;24.40;63.90
44775;DHT22;31340;51.402;0.016;2022-07-10T09:59:19;24.60;63.20
44775;DHT22;31340;51.402;0.016;2022-07-10T10:01:51;24.80;62.30
44775;DHT22;31340;51.402;0.016;2022-07-10T10:04:22;25.10;61.00
44775;DHT22;31340;51.402;0.016;2022-07-10T10:06:55;25.30;60.20
44775;DHT22;31340;51.402;0.016;2022-07-10T10:12:17;25.80;59.10
44775;DHT22;31340;51.402;0.016;2022-07-10T10:14:45;26.10;58.70
44775;DHT22;31340;51.402;0.016;2022-07-10T10:17:15;26.40;58.50
44775;DHT22;31340;51.402;0.016;2022-07-10T10:19:44;26.70;57.60
44775;DHT22;31340;51.402;0.016;2022-07-10T10:22:33;27.00;56.30
44775;DHT22;31340;51.402;0.016;2022-07-10T10:25:01;27.30;56.20
44775;DHT22;31340;51.402;0.016;2022-07-10T10:27:31;27.50;55.60
44775;DHT22;31340;51.402;0.016;2022-07-10T10:29:59;27.80;55.10
44775;DHT22;31340;51.402;0.016;2022-07-10T10:32:28;28.10;54.60
44775;DHT22;31340;51.402;0.016;2022-07-10T10:34:55;28.30;53.90
44775;DHT22;31340;51.402;0.016;2022-07-10T10:37:38;28.60;53.10
44775;DHT22;31340;51.402;0.016;2022-07-10T10:40:10;28.70;52.30
44775;DHT22;31340;51.402;0.016;2022-07-10T10:42:40;28.90;52.20
44775;DHT22;31340;51.402;0.016;2022-07-10T10:45:26;29.10;51.80
44775;DHT22;31340;51.402;0.016;2022-07-10T10:50:53;29.60;51.00
44775;DHT22;31340;51.402;0.016;2022-07-10T11:06:49;31.20;46.10
44775;DHT22;31340;51.402;0.016;2022-07-10T11:09:31;31.50;46.00
44775;DHT22;31340;51.402;0.016;2022-07-10T11:12:07;31.80;44.90
44775;DHT22;31340;51.402;0.016;2022-07-10T11:14:39;32.10;44.90
44775;DHT22;31340;51.402;0.016;2022-07-10T11:17:08;32.40;43.80
44775;DHT22;31340;51.402;0.016;2022-07-10T11:19:39;32.60;43.30
44775;DHT22;31340;51.402;0.016;2022-07-10T11:28:07;33.30;41.20
44775;DHT22;31340;51.402;0.016;2022-07-10T11:30:50;33.40;40.90
44775;DHT22;31340;51.402;0.016;2022-07-10T11:33:19;33.50;40.30
44775;DHT22;31340;51.402;0.016;2022-07-10T11:35:52;33.70;39.80
44775;DHT22;31340;51.402;0.016;2022-07-10T11:40:48;34.20;38.80
44775;DHT22;31340;51.402;0.016;2022-07-10T11:43:16;34.40;38.40
44775;DHT22;31340;51.402;0.016;2022-07-10T11:45:50;34.40;37.70
44775;DHT22;31340;51.402;0.016;2022-07-10T11:48:21;34.50;37.70
44775;DHT22;31340;51.402;0.016;2022-07-10T11:50:50;34.60;38.00
44775;DHT22;31340;51.402;0.016;2022-07-10T11:53:27;34.70;37.60
44775;DHT22;31340;51.402;0.016;2022-07-10T11:55:55;34.90;36.50
44775;DHT22;31340;51.402;0.016;2022-07-10T11:58:23;35.10;36.50
44775;DHT22;31340;51.402;0.016;2022-07-10T12:01:02;35.30;36.00
44775;DHT22;31340;51.402;0.016;2022-07-10T12:03:32;35.40;35.20
44775;DHT22;31340;51.402;0.016;2022-07-10T12:06:07;35.50;35.00
44775;DHT22;31340;51.402;0.016;2022-07-10T12:08:47;35.50;33.90
44775;DHT22;31340;51.402;0.016;2022-07-10T12:11:16;35.50;33.40
44775;DHT22;31340;51.402;0.016;2022-07-10T12:13:46;35.50;33.90
44775;DHT22;31340;51.402;0.016;2022-07-10T12:16:14;35.50;35.20
44775;DHT22;31340;51.402;0.016;2022-07-10T12:18:43;35.60;34.40
44775;DHT22;31340;51.402;0.016;2022-07-10T12:21:12;35.60;33.70
44775;DHT22;31340;51.402;0.016;2022-07-10T12:23:42;35.70;33.60
44775;DHT22;31340;51.402;0.016;2022-07-10T12:26:12;35.80;33.70
44775;DHT22;31340;51.402;0.016;2022-07-10T12:28:55;35.90;33.80
44775;DHT22;31340;51.402;0.016;2022-07-10T12:31:28;36.00;33.30
44775;DHT22;31340;51.402;0.016;2022-07-10T12:34:02;36.20;32.90
44775;DHT22;31340;51.402;0.016;2022-07-10T12:39:16;36.60;32.10
44775;DHT22;31340;51.402;0.016;2022-07-10T12:41:57;36.80;32.40
44775;DHT22;31340;51.402;0.016;2022-07-10T12:44:33;37.00;31.20
44775;DHT22;31340;51.402;0.016;2022-07-10T12:47:07;37.10;30.70
44775;DHT22;31340;51.402;0.016;2022-07-10T12:50:02;37.10;30.60
44775;DHT22;31340;51.402;0.016;2022-07-10T12:52:31;37.10;30.30
44775;DHT22;31340;51.402;0.016;2022-07-10T12:57:59;37.20;30.30
44775;DHT22;31340;51.402;0.016;2022-07-10T13:00:44;37.30;30.10
44775;DHT22;31340;51.402;0.016;2022-07-10T13:03:19;37.40;30.20
44775;DHT22;31340;51.402;0.016;2022-07-10T13:05:49;37.50;30.40
44775;DHT22;31340;51.402;0.016;2022-07-10T13:08:28;37.70;30.40
44775;DHT22;31340;51.402;0.016;2022-07-10T13:11:02;37.90;30.20
44775;DHT22;31340;51.402;0.016;2022-07-10T13:13:30;38.10;30.20
44775;DHT22;31340;51.402;0.016;2022-07-10T13:16:02;38.30;29.50
44775;DHT22;31340;51.402;0.016;2022-07-10T13:18:29;38.40;29.50
44775;DHT22;31340;51.402;0.016;2022-07-10T13:20:58;38.60;29.70
44775;DHT22;31340;51.402;0.016;2022-07-10T13:23:30;38.70;29.20
44775;DHT22;31340;51.402;0.016;2022-07-10T13:25:58;38.90;28.70
44775;DHT22;31340;51.402;0.016;2022-07-10T13:28:30;39.00;28.60
44775;DHT22;31340;51.402;0.016;2022-07-10T13:30:58;39.10;28.80
44775;DHT22;31340;51.402;0.016;2022-07-10T13:33:25;39.10;28.30
44775;DHT22;31340;51.402;0.016;2022-07-10T13:35:54;39.10;28.30
44775;DHT22;31340;51.402;0.016;2022-07-10T13:38:22;39.10;28.30
44775;DHT22;31340;51.402;0.016;2022-07-10T13:40:52;39.20;28.10
44775;DHT22;31340;51.402;0.016;2022-07-10T13:43:20;39.10;27.90
44775;DHT22;31340;51.402;0.016;2022-07-10T13:45:48;39.00;28.10
44775;DHT22;31340;51.402;0.016;2022-07-10T13:48:16;39.10;28.30
44775;DHT22;31340;51.402;0.016;2022-07-10T13:50:44;39.10;27.90
44775;DHT22;31340;51.402;0.016;2022-07-10T13:53:15;39.10;27.70
44775;DHT22;31340;51.402;0.016;2022-07-10T13:55:47;39.20;27.50
44775;DHT22;31340;51.402;0.016;2022-07-10T13:58:15;39.30;27.50
44775;DHT22;31340;51.402;0.016;2022-07-10T14:00:43;39.40;27.50
44775;DHT22;31340;51.402;0.016;2022-07-10T14:03:10;39.40;27.40
44775;DHT22;31340;51.402;0.016;2022-07-10T14:05:38;39.50;27.50
44775;DHT22;31340;51.402;0.016;2022-07-10T14:08:09;39.60;27.30
44775;DHT22;31340;51.402;0.016;2022-07-10T14:10:37;39.90;27.30
44775;DHT22;31340;51.402;0.016;2022-07-10T14:13:05;40.00;26.80
44775;DHT22;31340;51.402;0.016;2022-07-10T14:15:38;40.00;26.50
44775;DHT22;31340;51.402;0.016;2022-07-10T14:18:06;40.00;26.40
44775;DHT22;31340;51.402;0.016;2022-07-10T14:20:34;39.80;26.20
44775;DHT22;31340;51.402;0.016;2022-07-10T14:23:21;39.70;26.30
44775;DHT22;31340;51.402;0.016;2022-07-10T14:25:49;39.60;26.20
44775;DHT22;31340;51.402;0.016;2022-07-10T14:28:16;39.50;26.40
44775;DHT22;31340;51.402;0.016;2022-07-10T14:30:44;39.40;26.60
44775;DHT22;31340;51.402;0.016;2022-07-10T14:33:18;39.30;26.60
44775;DHT22;31340;51.402;0.016;2022-07-10T14:35:45;39.30;26.50
44775;DHT22;31340;51.402;0.016;2022-07-10T14:38:13;39.10;26.60
44775;DHT22;31340;51.402;0.016;2022-07-10T14:40:40;39.00;27.00
44775;DHT22;31340;51.402;0.016;2022-07-10T14:43:08;38.90;26.80
44775;DHT22;31340;51.402;0.016;2022-07-10T14:45:36;38.80;27.10
44775;DHT22;31340;51.402;0.016;2022-07-10T14:48:23;38.80;27.10
44775;DHT22;31340;51.402;0.016;2022-07-10T14:50:52;38.80;27.30
44775;DHT22;31340;51.402;0.016;2022-07-10T14:53:20;38.70;27.20
44775;DHT22;31340;51.402;0.016;2022-07-10T14:55:48;38.60;26.90
44775;DHT22;31340;51.402;0.016;2022-07-10T14:58:15;38.50;27.10
44775;DHT22;31340;51.402;0.016;2022-07-10T15:00:44;38.50;27.30
44775;DHT22;31340;51.402;0.016;2022-07-10T15:03:11;38.50;27.40
44775;DHT22;31340;51.402;0.016;2022-07-10T15:05:39;38.60;27.50
44775;DHT22;31340;51.402;0.016;2022-07-10T15:08:07;38.70;27.30
44775;DHT22;31340;51.402;0.016;2022-07-10T15:10:34;38.90;27.30
44775;DHT22;31340;51.402;0.016;2022-07-10T15:13:02;39.00;27.00
44775;DHT22;31340;51.402;0.016;2022-07-10T15:15:32;39.20;26.90
44775;DHT22;31340;51.402;0.016;2022-07-10T15:18:01;39.40;26.90
44775;DHT22;31340;51.402;0.016;2022-07-10T15:20:28;39.60;26.60
44775;DHT22;31340;51.402;0.016;2022-07-10T15:22:57;39.80;26.30
44775;DHT22;31340;51.402;0.016;2022-07-10T15:25:25;40.00;26.10
44775;DHT22;31340;51.402;0.016;2022-07-10T15:27:53;40.20;26.10
44775;DHT22;31340;51.402;0.016;2022-07-10T15:30:21;40.40;25.90
44775;DHT22;31340;51.402;0.016;2022-07-10T15:32:49;40.50;25.70
44775;DHT22;31340;51.402;0.016;2022-07-10T15:35:16;40.60;25.50
44775;DHT22;31340;51.402;0.016;2022-07-10T15:37:44;40.60;25.10
44775;DHT22;31340;51.402;0.016;2022-07-10T15:40:11;40.70;25.00
44775;DHT22;31340;51.402;0.016;2022-07-10T15:42:39;40.70;25.20
44775;DHT22;31340;51.402;0.016;2022-07-10T15:45:07;40.70;25.00
44775;DHT22;31340;51.402;0.016;2022-07-10T15:47:40;40.70;24.90
44775;DHT22;31340;51.402;0.016;2022-07-10T15:50:08;40.80;25.10
44775;DHT22;31340;51.402;0.016;2022-07-10T15:52:35;40.90;25.10
44775;DHT22;31340;51.402;0.016;2022-07-10T15:55:03;40.90;24.70
44775;DHT22;31340;51.402;0.016;2022-07-10T15:57:30;41.00;25.10
44775;DHT22;31340;51.402;0.016;2022-07-10T15:59:58;41.00;24.70
44775;DHT22;31340;51.402;0.016;2022-07-10T16:02:26;41.00;24.70
44775;DHT22;31340;51.402;0.016;2022-07-10T16:04:54;41.00;24.70
44775;DHT22;31340;51.402;0.016;2022-07-10T16:07:22;40.90;24.50
44775;DHT22;31340;51.402;0.016;2022-07-10T16:09:49;40.80;24.40
44775;DHT22;31340;51.402;0.016;2022-07-10T16:12:17;40.80;24.30
44775;DHT22;31340;51.402;0.016;2022-07-10T16:14:45;40.60;24.50
44775;DHT22;31340;51.402;0.016;2022-07-10T16:17:13;40.60;24.80
44775;DHT22;31340;51.402;0.016;2022-07-10T16:19:40;40.50;24.60
44775;DHT22;31340;51.402;0.016;2022-07-10T16:22:09;40.40;24.80
44775;DHT22;31340;51.402;0.016;2022-07-10T16:24:36;40.40;25.10